sensor_id;sensor_type;location;lat;lon;timestamp;P1;durP1;ratioP1;P2;durP2;ratioP2
66830;SDS011;53739;44.224;22.528;2023-04-01T00:00:30;300.23;;;165.38;;
66830;SDS011;53739;44.224;22.528;2023-04-01T00:02:56;164.50;;;103.50;;
66830;SDS011;53739;44.224;22.528;2023-04-01T00:05:22;165.68;;;102.20;;
66830;SDS011;53739;44.224;22.528;2023-04-01T00:07:49;138.80;;;89.40;;
66830;SDS011;53739;44.224;22.528;2023-04-01T00:10:16;142.80;;;88.35;;
66830;SDS011;53739;44.224;22.528;2023-04-01T00:12:41;139.05;;;90.82;;
66830;SDS011;53739;44.224;22.528;2023-04-01T00:15:08;157.02;;;98.53;;
66830;SDS011;53739;44.224;22.528;2023-04-01T00:17:36;155.20;;;100.82;;
66830;SDS011;53739;44.224;22.528;2023-04-01T00:20:02;176.73;;;106.80;;
66830;SDS011;53739;44.224;22.528;2023-04-01T00:22:29;161.57;;;104.85;;
66830;SDS011;53739;44.224;22.528;2023-04-01T00:24:55;189.57;;;117.63;;
66830;SDS011;53739;44.224;22.528;2023-04-01T00:27:20;228.75;;;136.73;;
66830;SDS011;53739;44.224;22.528;2023-04-01T00:29:46;218.23;;;133.30;;
66830;SDS011;53739;44.224;22.528;2023-04-01T00:32:12;168.45;;;105.60;;
66830;SDS011;53739;44.224;22.528;2023-04-01T00:34:39;160.05;;;101.88;;
66830;SDS011;53739;44.224;22.528;2023-04-01T00:37:05;170.30;;;103.50;;
66830;SDS011;53739;44.224;22.528;2023-04-01T00:39:32;169.98;;;103.13;;
66830;SDS011;53739;44.224;22.528;2023-04-01T00:41:59;173.63;;;102.10;;
66830;SDS011;53739;44.224;22.528;2023-04-01T00:44:26;127.47;;;75.13;;
66830;SDS011;53739;44.224;22.528;2023-04-01T00:46:54;100.32;;;63.60;;
66830;SDS011;53739;44.224;22.528;2023-04-01T00:49:22;89.28;;;54.78;;
66830;SDS011;53739;44.224;22.528;2023-04-01T00:51:53;94.07;;;55.88;;
66830;SDS011;53739;44.224;22.528;2023-04-01T00:54:22;83.65;;;52.00;;
66830;SDS011;53739;44.224;22.528;2023-04-01T00:56:51;72.28;;;43.83;;
66830;SDS011;53739;44.224;22.528;2023-04-01T00:59:46;45.08;;;29.48;;
66830;SDS011;53739;44.224;22.528;2023-04-01T01:02:16;34.78;;;17.67;;
66830;SDS011;53739;44.224;22.528;2023-04-01T01:04:43;33.80;;;17.23;;
66830;SDS011;53739;44.224;22.528;2023-04-01T01:13:03;148.85;;;81.63;;
66830;SDS011;53739;44.224;22.528;2023-04-01T01:15:46;172.65;;;97.75;;
66830;SDS011;53739;44.224;22.528;2023-04-01T01:18:19;101.75;;;54.53;;
66830;SDS011;53739;44.224;22.528;2023-04-01T01:27:07;61.95;;;38.90;;
66830;SDS011;53739;44.224;22.528;2023-04-01T01:29:42;60.97;;;41.45;;
66830;SDS011;53739;44.224;22.528;2023-04-01T01:37:35;68.82;;;44.63;;
66830;SDS011;53739;44.224;22.528;2023-04-01T01:40:06;134.75;;;74.93;;
66830;SDS011;53739;44.224;22.528;2023-04-01T01:42:35;101.15;;;59.50;;
66830;SDS011;53739;44.224;22.528;2023-04-01T01:45:04;74.35;;;46.67;;
66830;SDS011;53739;44.224;22.528;2023-04-01T01:47:33;64.90;;;41.67;;
66830;SDS011;53739;44.224;22.528;2023-04-01T01:50:00;109.85;;;60.72;;
66830;SDS011;53739;44.224;22.528;2023-04-01T01:52:28;79.35;;;46.22;;
66830;SDS011;53739;44.224;22.528;2023-04-01T01:54:56;223.63;;;117.25;;
66830;SDS011;53739;44.224;22.528;2023-04-01T01:57:23;203.68;;;113.72;;
66830;SDS011;53739;44.224;22.528;2023-04-01T01:59:54;113.97;;;66.70;;
66830;SDS011;53739;44.224;22.528;2023-04-01T02:02:24;168.10;;;95.28;;
66830;SDS011;53739;44.224;22.528;2023-04-01T02:04:51;129.98;;;76.05;;
66830;SDS011;53739;44.224;22.528;2023-04-01T02:07:20;127.82;;;76.35;;
66830;SDS011;53739;44.224;22.528;2023-04-01T02:09:50;160.85;;;90.78;;
66830;SDS011;53739;44.224;22.528;2023-04-01T02:12:17;110.55;;;62.42;;
66830;SDS011;53739;44.224;22.528;2023-04-01T02:17:21;155.50;;;87.05;;
66830;SDS011;53739;44.224;22.528;2023-04-01T02:19:56;146.63;;;87.63;;
66830;SDS011;53739;44.224;22.528;2023-04-01T02:22:25;112.20;;;66.60;;
66830;SDS011;53739;44.224;22.528;2023-04-01T02:24:53;90.78;;;55.75;;
66830;SDS011;53739;44.224;22.528;2023-04-01T02:27:23;79.82;;;50.30;;
66830;SDS011;53739;44.224;22.528;2023-04-01T02:29:49;81.00;;;51.70;;
66830;SDS011;53739;44.224;22.528;2023-04-01T02:32:16;85.38;;;51.05;;
66830;SDS011;53739;44.224;22.528;2023-04-01T02:34:43;85.97;;;49.83;;
66830;SDS011;53739;44.224;22.528;2023-04-01T02:37:10;76.38;;;44.78;;
66830;SDS011;53739;44.224;22.528;2023-04-01T02:39:37;72.03;;;46.40;;
66830;SDS011;53739;44.224;22.528;2023-04-01T02:42:02;85.85;;;48.90;;
66830;SDS011;53739;44.224;22.528;2023-04-01T02:44:28;89.90;;;48.83;;
66830;SDS011;53739;44.224;22.528;2023-04-01T02:46:54;90.53;;;51.95;;
66830;SDS011;53739;44.224;22.528;2023-04-01T02:49:20;79.63;;;47.40;;
66830;SDS011;53739;44.224;22.528;2023-04-01T02:51:45;90.30;;;50.88;;
66830;SDS011;53739;44.224;22.528;2023-04-01T02:54:11;85.55;;;51.35;;
66830;SDS011;53739;44.224;22.528;2023-04-01T02:56:37;132.27;;;77.70;;
66830;SDS011;53739;44.224;22.528;2023-04-01T02:59:03;121.15;;;73.93;;
66830;SDS011;53739;44.224;22.528;2023-04-01T03:01:29;84.30;;;54.65;;
66830;SDS011;53739;44.224;22.528;2023-04-01T03:03:55;82.30;;;52.65;;
66830;SDS011;53739;44.224;22.528;2023-04-01T03:06:21;71.65;;;46.30;;
66830;SDS011;53739;44.224;22.528;2023-04-01T03:08:47;61.58;;;38.67;;
66830;SDS011;53739;44.224;22.528;2023-04-01T03:11:13;56.30;;;35.45;;
66830;SDS011;53739;44.224;22.528;2023-04-01T03:13:39;182.95;;;115.68;;
66830;SDS011;53739;44.224;22.528;2023-04-01T03:16:05;211.60;;;128.25;;
66830;SDS011;53739;44.224;22.528;2023-04-01T03:18:31;148.15;;;92.93;;
66830;SDS011;53739;44.224;22.528;2023-04-01T03:20:57;127.68;;;77.30;;
66830;SDS011;53739;44.224;22.528;2023-04-01T03:23:22;72.20;;;44.88;;
66830;SDS011;53739;44.224;22.528;2023-04-01T03:25:49;66.78;;;42.20;;
66830;SDS011;53739;44.224;22.528;2023-04-01T03:28:15;67.97;;;44.50;;
66830;SDS011;53739;44.224;22.528;2023-04-01T03:30:41;69.43;;;45.45;;
66830;SDS011;53739;44.224;22.528;2023-04-01T03:33:07;75.05;;;41.72;;
66830;SDS011;53739;44.224;22.528;2023-04-01T03:35:33;62.72;;;38.38;;
66830;SDS011;53739;44.224;22.528;2023-04-01T03:38:01;54.03;;;33.20;;
66830;SDS011;53739;44.224;22.528;2023-04-01T03:40:26;53.35;;;33.45;;
66830;SDS011;53739;44.224;22.528;2023-04-01T03:42:52;56.38;;;32.38;;
66830;SDS011;53739;44.224;22.528;2023-04-01T03:45:18;77.05;;;48.25;;
66830;SDS011;53739;44.224;22.528;2023-04-01T03:47:44;63.10;;;38.17;;
66830;SDS011;53739;44.224;22.528;2023-04-01T03:50:10;51.13;;;30.63;;
66830;SDS011;53739;44.224;22.528;2023-04-01T03:52:36;53.83;;;32.05;;
66830;SDS011;53739;44.224;22.528;2023-04-01T03:55:02;57.60;;;37.33;;
66830;SDS011;53739;44.224;22.528;2023-04-01T03:57:28;57.22;;;34.95;;
66830;SDS011;53739;44.224;22.528;2023-04-01T03:59:56;56.15;;;33.65;;
66830;SDS011;53739;44.224;22.528;2023-04-01T04:02:22;56.22;;;36.67;;
66830;SDS011;53739;44.224;22.528;2023-04-01T04:04:47;56.50;;;36.97;;
66830;SDS011;53739;44.224;22.528;2023-04-01T04:07:13;48.60;;;32.08;;
66830;SDS011;53739;44.224;22.528;2023-04-01T04:09:39;41.33;;;24.50;;
66830;SDS011;53739;44.224;22.528;2023-04-01T04:12:05;42.78;;;28.55;;
66830;SDS011;53739;44.224;22.528;2023-04-01T04:14:31;58.30;;;37.88;;
66830;SDS011;53739;44.224;22.528;2023-04-01T04:16:57;59.90;;;38.13;;
66830;SDS011;53739;44.224;22.528;2023-04-01T04:19:23;65.00;;;41.42;;
66830;SDS011;53739;44.224;22.528;2023-04-01T04:21:49;58.28;;;37.22;;
66830;SDS011;53739;44.224;22.528;2023-04-01T04:24:14;59.30;;;36.50;;
66830;SDS011;53739;44.224;22.528;2023-04-01T04:26:40;50.50;;;31.77;;
66830;SDS011;53739;44.224;22.528;2023-04-01T04:29:06;45.65;;;30.90;;
66830;SDS011;53739;44.224;22.528;2023-04-01T04:31:32;39.65;;;27.05;;
66830;SDS011;53739;44.224;22.528;2023-04-01T04:33:58;41.80;;;29.73;;
66830;SDS011;53739;44.224;22.528;2023-04-01T04:36:26;75.60;;;47.10;;
66830;SDS011;53739;44.224;22.528;2023-04-01T04:38:52;63.05;;;41.53;;
66830;SDS011;53739;44.224;22.528;2023-04-01T04:41:18;57.00;;;35.15;;
66830;SDS011;53739;44.224;22.528;2023-04-01T04:43:51;73.78;;;46.33;;
66830;SDS011;53739;44.224;22.528;2023-04-01T04:46:19;78.25;;;49.20;;
66830;SDS011;53739;44.224;22.528;2023-04-01T04:48:45;86.85;;;52.15;;
66830;SDS011;53739;44.224;22.528;2023-04-01T04:51:18;85.82;;;52.20;;
66830;SDS011;53739;44.224;22.528;2023-04-01T04:53:46;80.32;;;50.72;;
66830;SDS011;53739;44.224;22.528;2023-04-01T04:56:12;72.78;;;46.90;;
66830;SDS011;53739;44.224;22.528;2023-04-01T04:58:38;69.53;;;46.30;;
66830;SDS011;53739;44.224;22.528;2023-04-01T05:01:05;73.03;;;45.55;;
66830;SDS011;53739;44.224;22.528;2023-04-01T05:03:32;70.25;;;45.05;;
66830;SDS011;53739;44.224;22.528;2023-04-01T05:05:58;58.50;;;39.45;;
66830;SDS011;53739;44.224;22.528;2023-04-01T05:08:23;57.60;;;36.65;;
66830;SDS011;53739;44.224;22.528;2023-04-01T05:10:50;321.25;;;159.82;;
66830;SDS011;53739;44.224;22.528;2023-04-01T05:13:16;156.38;;;95.97;;
66830;SDS011;53739;44.224;22.528;2023-04-01T05:15:42;141.52;;;86.55;;
66830;SDS011;53739;44.224;22.528;2023-04-01T05:18:08;90.68;;;56.70;;
66830;SDS011;53739;44.224;22.528;2023-04-01T05:20:33;89.85;;;57.42;;
66830;SDS011;53739;44.224;22.528;2023-04-01T05:22:59;108.20;;;69.95;;
66830;SDS011;53739;44.224;22.528;2023-04-01T05:25:25;173.85;;;103.55;;
66830;SDS011;53739;44.224;22.528;2023-04-01T05:27:51;155.10;;;89.28;;
66830;SDS011;53739;44.224;22.528;2023-04-01T05:30:17;158.18;;;91.93;;
66830;SDS011;53739;44.224;22.528;2023-04-01T05:32:43;137.05;;;79.57;;
66830;SDS011;53739;44.224;22.528;2023-04-01T05:35:09;132.02;;;82.40;;
66830;SDS011;53739;44.224;22.528;2023-04-01T05:37:36;100.03;;;64.93;;
66830;SDS011;53739;44.224;22.528;2023-04-01T05:40:03;173.27;;;97.15;;
66830;SDS011;53739;44.224;22.528;2023-04-01T05:42:33;135.18;;;82.82;;
66830;SDS011;53739;44.224;22.528;2023-04-01T05:44:58;64.97;;;41.35;;
66830;SDS011;53739;44.224;22.528;2023-04-01T05:47:24;57.00;;;37.53;;
66830;SDS011;53739;44.224;22.528;2023-04-01T05:49:53;65.05;;;39.00;;
66830;SDS011;53739;44.224;22.528;2023-04-01T05:52:21;50.35;;;35.42;;
66830;SDS011;53739;44.224;22.528;2023-04-01T05:54:47;45.05;;;31.70;;
66830;SDS011;53739;44.224;22.528;2023-04-01T05:57:15;43.33;;;30.40;;
66830;SDS011;53739;44.224;22.528;2023-04-01T05:59:48;58.85;;;39.08;;
66830;SDS011;53739;44.224;22.528;2023-04-01T06:02:16;53.95;;;38.13;;
66830;SDS011;53739;44.224;22.528;2023-04-01T06:04:43;79.47;;;51.10;;
66830;SDS011;53739;44.224;22.528;2023-04-01T06:07:17;90.13;;;60.53;;
66830;SDS011;53739;44.224;22.528;2023-04-01T06:09:44;90.90;;;61.47;;
66830;SDS011;53739;44.224;22.528;2023-04-01T06:12:15;92.38;;;57.45;;
66830;SDS011;53739;44.224;22.528;2023-04-01T06:15:17;103.35;;;59.30;;
66830;SDS011;53739;44.224;22.528;2023-04-01T06:34:25;132.55;;;91.93;;
66830;SDS011;53739;44.224;22.528;2023-04-01T06:48:11;273.38;;;135.77;;
66830;SDS011;53739;44.224;22.528;2023-04-01T06:50:55;156.70;;;113.88;;
66830;SDS011;53739;44.224;22.528;2023-04-01T06:56:06;122.28;;;88.55;;
66830;SDS011;53739;44.224;22.528;2023-04-01T06:58:39;112.65;;;78.38;;
66830;SDS011;53739;44.224;22.528;2023-04-01T07:01:16;92.82;;;68.97;;
66830;SDS011;53739;44.224;22.528;2023-04-01T07:03:49;87.57;;;63.50;;
66830;SDS011;53739;44.224;22.528;2023-04-01T07:09:22;129.55;;;89.45;;
66830;SDS011;53739;44.224;22.528;2023-04-01T07:11:53;129.77;;;85.93;;
66830;SDS011;53739;44.224;22.528;2023-04-01T07:14:27;115.38;;;79.53;;
66830;SDS011;53739;44.224;22.528;2023-04-01T07:17:15;115.47;;;81.85;;
66830;SDS011;53739;44.224;22.528;2023-04-01T07:22:29;117.35;;;82.05;;
66830;SDS011;53739;44.224;22.528;2023-04-01T07:25:23;100.88;;;73.43;;
66830;SDS011;53739;44.224;22.528;2023-04-01T07:28:12;82.03;;;57.28;;
66830;SDS011;53739;44.224;22.528;2023-04-01T07:36:11;76.82;;;56.05;;
66830;SDS011;53739;44.224;22.528;2023-04-01T07:41:48;77.43;;;56.78;;
66830;SDS011;53739;44.224;22.528;2023-04-01T07:47:11;56.50;;;44.97;;
66830;SDS011;53739;44.224;22.528;2023-04-01T07:49:55;216.75;;;126.40;;
66830;SDS011;53739;44.224;22.528;2023-04-01T07:57:43;79.57;;;62.13;;
66830;SDS011;53739;44.224;22.528;2023-04-01T08:05:56;76.13;;;61.95;;
66830;SDS011;53739;44.224;22.528;2023-04-01T08:08:35;35.85;;;29.60;;
66830;SDS011;53739;44.224;22.528;2023-04-01T08:11:46;69.88;;;56.25;;
66830;SDS011;53739;44.224;22.528;2023-04-01T08:22:41;37.78;;;29.73;;
66830;SDS011;53739;44.224;22.528;2023-04-01T08:25:13;37.05;;;26.52;;
66830;SDS011;53739;44.224;22.528;2023-04-01T08:27:46;37.60;;;28.67;;
66830;SDS011;53739;44.224;22.528;2023-04-01T08:30:26;66.10;;;51.65;;
66830;SDS011;53739;44.224;22.528;2023-04-01T08:33:17;74.07;;;56.25;;
66830;SDS011;53739;44.224;22.528;2023-04-01T08:35:51;98.75;;;67.55;;
66830;SDS011;53739;44.224;22.528;2023-04-01T08:38:31;103.70;;;70.75;;
66830;SDS011;53739;44.224;22.528;2023-04-01T08:41:12;85.88;;;61.85;;
66830;SDS011;53739;44.224;22.528;2023-04-01T08:55:19;108.07;;;73.32;;
66830;SDS011;53739;44.224;22.528;2023-04-01T09:17:39;136.32;;;100.22;;
66830;SDS011;53739;44.224;22.528;2023-04-01T09:28:54;69.25;;;49.35;;
66830;SDS011;53739;44.224;22.528;2023-04-01T09:45:07;63.25;;;46.65;;
66830;SDS011;53739;44.224;22.528;2023-04-01T10:02:10;55.60;;;42.63;;
66830;SDS011;53739;44.224;22.528;2023-04-01T10:05:04;68.05;;;50.75;;
66830;SDS011;53739;44.224;22.528;2023-04-01T10:08:04;53.25;;;41.63;;
66830;SDS011;53739;44.224;22.528;2023-04-01T10:19:37;74.03;;;55.87;;
66830;SDS011;53739;44.224;22.528;2023-04-01T10:49:31;133.15;;;75.75;;
66830;SDS011;53739;44.224;22.528;2023-04-01T10:54:48;92.78;;;56.85;;
66830;SDS011;53739;44.224;22.528;2023-04-01T11:00:40;52.25;;;34.75;;
66830;SDS011;53739;44.224;22.528;2023-04-01T11:15:16;111.47;;;67.68;;
66830;SDS011;53739;44.224;22.528;2023-04-01T11:23:31;53.67;;;37.67;;
66830;SDS011;53739;44.224;22.528;2023-04-01T11:40:14;145.05;;;75.22;;
66830;SDS011;53739;44.224;22.528;2023-04-01T11:53:34;77.30;;;50.20;;
66830;SDS011;53739;44.224;22.528;2023-04-01T11:59:20;49.88;;;34.78;;
66830;SDS011;53739;44.224;22.528;2023-04-01T12:10:39;63.80;;;42.50;;
66830;SDS011;53739;44.224;22.528;2023-04-01T12:13:18;65.28;;;43.00;;
66830;SDS011;53739;44.224;22.528;2023-04-01T12:20:59;62.92;;;46.45;;
66830;SDS011;53739;44.224;22.528;2023-04-01T12:29:44;89.75;;;53.92;;
66830;SDS011;53739;44.224;22.528;2023-04-01T12:32:47;73.50;;;48.47;;
66830;SDS011;53739;44.224;22.528;2023-04-01T12:35:39;153.77;;;84.05;;
66830;SDS011;53739;44.224;22.528;2023-04-01T12:38:35;106.35;;;62.83;;
66830;SDS011;53739;44.224;22.528;2023-04-01T12:42:23;51.65;;;35.30;;
66830;SDS011;53739;44.224;22.528;2023-04-01T12:52:58;105.78;;;53.22;;
66830;SDS011;53739;44.224;22.528;2023-04-01T12:55:45;297.70;;;151.77;;
66830;SDS011;53739;44.224;22.528;2023-04-01T13:03:40;89.57;;;44.10;;
66830;SDS011;53739;44.224;22.528;2023-04-01T13:11:59;237.13;;;123.70;;
66830;SDS011;53739;44.224;22.528;2023-04-01T13:15:05;168.77;;;103.38;;
66830;SDS011;53739;44.224;22.528;2023-04-01T13:17:49;69.30;;;51.72;;
66830;SDS011;53739;44.224;22.528;2023-04-01T13:28:29;27.38;;;23.15;;
66830;SDS011;53739;44.224;22.528;2023-04-01T13:31:07;46.70;;;39.28;;
66830;SDS011;53739;44.224;22.528;2023-04-01T13:33:46;21.77;;;17.60;;
66830;SDS011;53739;44.224;22.528;2023-04-01T13:36:19;38.25;;;29.35;;
66830;SDS011;53739;44.224;22.528;2023-04-01T13:52:32;28.92;;;21.23;;
66830;SDS011;53739;44.224;22.528;2023-04-01T13:57:57;41.08;;;30.73;;
66830;SDS011;53739;44.224;22.528;2023-04-01T14:12:43;29.52;;;21.35;;
66830;SDS011;53739;44.224;22.528;2023-04-01T14:15:22;37.60;;;29.27;;
66830;SDS011;53739;44.224;22.528;2023-04-01T14:20:48;48.30;;;36.78;;
66830;SDS011;53739;44.224;22.528;2023-04-01T14:28:44;41.90;;;28.83;;
66830;SDS011;53739;44.224;22.528;2023-04-01T14:47:48;54.28;;;41.95;;
66830;SDS011;53739;44.224;22.528;2023-04-01T14:50:42;53.70;;;43.85;;
66830;SDS011;53739;44.224;22.528;2023-04-01T14:53:13;63.63;;;47.13;;
66830;SDS011;53739;44.224;22.528;2023-04-01T14:55:52;147.60;;;92.72;;
66830;SDS011;53739;44.224;22.528;2023-04-01T14:58:23;114.30;;;83.03;;
66830;SDS011;53739;44.224;22.528;2023-04-01T15:18:13;99.47;;;61.85;;
66830;SDS011;53739;44.224;22.528;2023-04-01T15:40:24;142.90;;;88.65;;
66830;SDS011;53739;44.224;22.528;2023-04-01T15:46:15;84.03;;;60.38;;
66830;SDS011;53739;44.224;22.528;2023-04-01T15:49:04;10.95;;;7.70;;
66830;SDS011;53739;44.224;22.528;2023-04-01T16:04:09;32.50;;;20.35;;
66830;SDS011;53739;44.224;22.528;2023-04-01T16:14:53;13.00;;;7.53;;
66830;SDS011;53739;44.224;22.528;2023-04-01T16:20:59;11.40;;;4.45;;
66830;SDS011;53739;44.224;22.528;2023-04-01T16:23:50;15.30;;;7.97;;
66830;SDS011;53739;44.224;22.528;2023-04-01T16:26:26;25.60;;;10.60;;
66830;SDS011;53739;44.224;22.528;2023-04-01T16:37:50;14.13;;;6.38;;
66830;SDS011;53739;44.224;22.528;2023-04-01T16:43:16;26.05;;;9.93;;
66830;SDS011;53739;44.224;22.528;2023-04-01T16:46:12;17.05;;;7.30;;
66830;SDS011;53739;44.224;22.528;2023-04-01T16:49:30;4.55;;;2.90;;
66830;SDS011;53739;44.224;22.528;2023-04-01T16:51:46;26.77;;;11.45;;
66830;SDS011;53739;44.224;22.528;2023-04-01T16:59:29;15.85;;;7.70;;
66830;SDS011;53739;44.224;22.528;2023-04-01T17:04:34;50.53;;;18.73;;
66830;SDS011;53739;44.224;22.528;2023-04-01T17:07:31;32.88;;;12.57;;
66830;SDS011;53739;44.224;22.528;2023-04-01T17:10:22;21.08;;;14.02;;
66830;SDS011;53739;44.224;22.528;2023-04-01T17:23:50;24.08;;;8.82;;
66830;SDS011;53739;44.224;22.528;2023-04-01T17:37:15;15.15;;;7.50;;
66830;SDS011;53739;44.224;22.528;2023-04-01T17:39:49;41.30;;;20.88;;
66830;SDS011;53739;44.224;22.528;2023-04-01T17:45:25;23.67;;;11.05;;
66830;SDS011;53739;44.224;22.528;2023-04-01T17:53:33;38.08;;;20.25;;
66830;SDS011;53739;44.224;22.528;2023-04-01T17:56:08;16.80;;;8.98;;
66830;SDS011;53739;44.224;22.528;2023-04-01T18:01:30;30.48;;;12.65;;
66830;SDS011;53739;44.224;22.528;2023-04-01T18:13:40;27.50;;;14.20;;
66830;SDS011;53739;44.224;22.528;2023-04-01T18:19:10;46.00;;;22.75;;
66830;SDS011;53739;44.224;22.528;2023-04-01T18:24:14;19.10;;;9.68;;
66830;SDS011;53739;44.224;22.528;2023-04-01T18:30:14;15.35;;;8.07;;
66830;SDS011;53739;44.224;22.528;2023-04-01T18:35:29;10.13;;;5.95;;
66830;SDS011;53739;44.224;22.528;2023-04-01T18:38:13;20.38;;;12.07;;
66830;SDS011;53739;44.224;22.528;2023-04-01T18:43:26;15.60;;;10.02;;
66830;SDS011;53739;44.224;22.528;2023-04-01T18:46:07;15.70;;;9.00;;
66830;SDS011;53739;44.224;22.528;2023-04-01T18:48:57;16.42;;;9.35;;
66830;SDS011;53739;44.224;22.528;2023-04-01T18:51:54;19.45;;;10.98;;
66830;SDS011;53739;44.224;22.528;2023-04-01T18:54:33;20.35;;;13.38;;
66830;SDS011;53739;44.224;22.528;2023-04-01T19:05:19;31.50;;;18.63;;
66830;SDS011;53739;44.224;22.528;2023-04-01T19:07:49;30.92;;;18.05;;
66830;SDS011;53739;44.224;22.528;2023-04-01T19:21:17;25.55;;;14.05;;
66830;SDS011;53739;44.224;22.528;2023-04-01T19:33:04;38.42;;;21.38;;
66830;SDS011;53739;44.224;22.528;2023-04-01T19:36:03;21.73;;;11.77;;
66830;SDS011;53739;44.224;22.528;2023-04-01T19:38:40;41.58;;;25.30;;
66830;SDS011;53739;44.224;22.528;2023-04-01T19:47:35;28.95;;;19.95;;
66830;SDS011;53739;44.224;22.528;2023-04-01T19:50:19;25.73;;;14.68;;
66830;SDS011;53739;44.224;22.528;2023-04-01T19:53:15;17.25;;;9.63;;
66830;SDS011;53739;44.224;22.528;2023-04-01T19:56:06;14.05;;;8.15;;
66830;SDS011;53739;44.224;22.528;2023-04-01T19:59:04;18.13;;;8.45;;
66830;SDS011;53739;44.224;22.528;2023-04-01T20:04:33;25.90;;;10.13;;
66830;SDS011;53739;44.224;22.528;2023-04-01T20:07:07;15.38;;;7.53;;
66830;SDS011;53739;44.224;22.528;2023-04-01T20:09:46;40.20;;;16.63;;
66830;SDS011;53739;44.224;22.528;2023-04-01T20:15:35;132.52;;;83.80;;
66830;SDS011;53739;44.224;22.528;2023-04-01T20:18:18;56.35;;;30.42;;
66830;SDS011;53739;44.224;22.528;2023-04-01T20:21:24;28.40;;;16.65;;
66830;SDS011;53739;44.224;22.528;2023-04-01T20:24:07;14.50;;;9.15;;
66830;SDS011;53739;44.224;22.528;2023-04-01T20:35:50;21.45;;;11.13;;
66830;SDS011;53739;44.224;22.528;2023-04-01T20:52:53;48.25;;;29.83;;
66830;SDS011;53739;44.224;22.528;2023-04-01T21:22:30;41.67;;;23.00;;
66830;SDS011;53739;44.224;22.528;2023-04-01T21:25:14;50.10;;;29.90;;
66830;SDS011;53739;44.224;22.528;2023-04-01T21:28:23;90.50;;;49.80;;
66830;SDS011;53739;44.224;22.528;2023-04-01T21:55:48;62.92;;;24.13;;
66830;SDS011;53739;44.224;22.528;2023-04-01T22:04:18;74.68;;;33.45;;
66830;SDS011;53739;44.224;22.528;2023-04-01T22:07:11;96.88;;;48.00;;
66830;SDS011;53739;44.224;22.528;2023-04-01T22:12:44;56.22;;;24.38;;
66830;SDS011;53739;44.224;22.528;2023-04-01T22:18:07;72.63;;;32.65;;
66830;SDS011;53739;44.224;22.528;2023-04-01T22:21:03;222.48;;;92.88;;
66830;SDS011;53739;44.224;22.528;2023-04-01T22:24:03;64.47;;;28.20;;
66830;SDS011;53739;44.224;22.528;2023-04-01T22:26:44;154.93;;;62.67;;
66830;SDS011;53739;44.224;22.528;2023-04-01T22:29:14;104.80;;;40.50;;
66830;SDS011;53739;44.224;22.528;2023-04-01T22:32:11;146.40;;;58.75;;
66830;SDS011;53739;44.224;22.528;2023-04-01T22:35:01;24.60;;;12.23;;
66830;SDS011;53739;44.224;22.528;2023-04-01T22:40:25;30.10;;;16.00;;
66830;SDS011;53739;44.224;22.528;2023-04-01T22:43:07;20.90;;;11.00;;
66830;SDS011;53739;44.224;22.528;2023-04-01T22:48:41;81.85;;;35.47;;
66830;SDS011;53739;44.224;22.528;2023-04-01T22:56:36;58.30;;;25.92;;
66830;SDS011;53739;44.224;22.528;2023-04-01T23:02:18;148.50;;;63.70;;
66830;SDS011;53739;44.224;22.528;2023-04-01T23:04:54;16.90;;;8.82;;
66830;SDS011;53739;44.224;22.528;2023-04-01T23:12:53;95.40;;;40.67;;
66830;SDS011;53739;44.224;22.528;2023-04-01T23:15:23;190.88;;;78.03;;
66830;SDS011;53739;44.224;22.528;2023-04-01T23:18:36;76.13;;;28.92;;
66830;SDS011;53739;44.224;22.528;2023-04-01T23:29:16;76.95;;;37.47;;
66830;SDS011;53739;44.224;22.528;2023-04-01T23:31:44;28.75;;;14.13;;
66830;SDS011;53739;44.224;22.528;2023-04-01T23:36:49;114.20;;;55.80;;
66830;SDS011;53739;44.224;22.528;2023-04-01T23:39:22;41.53;;;18.95;;
66830;SDS011;53739;44.224;22.528;2023-04-01T23:41:51;90.97;;;37.47;;
66830;SDS011;53739;44.224;22.528;2023-04-01T23:44:20;141.10;;;78.65;;
66830;SDS011;53739;44.224;22.528;2023-04-01T23:46:49;97.90;;;56.15;;
66830;SDS011;53739;44.224;22.528;2023-04-01T23:49:51;33.95;;;17.08;;
66830;SDS011;53739;44.224;22.528;2023-04-01T23:52:24;62.92;;;32.70;;
66830;SDS011;53739;44.224;22.528;2023-04-01T23:57:35;98.88;;;43.00;;
